Time;durP1;ratioP1;P1;durP2;ratioP2;P2;SDS_P1;SDS_P2;PMS_P1;PMS_P2;Temp;Humidity;BMP_temperature;BMP_pressure;BME280_temperature;BME280_humidity;BME280_pressure;Samples;Min_cycle;Max_cycle;Signal;HPM_P1;HPM_P2
2021/12/06 00:02:23;;;;;;;4.65;4.45;;;;;;;3.30;100.00;100653.59;4377521;32;20084;-73
2021/12/06 00:04:48;;;;;;;3.05;2.95;;;;;;;3.17;100.00;100629.72;4394758;32;20069;-74
2021/12/06 00:07:20;;;;;;;3.00;2.90;;;;;;;3.29;100.00;100648.47;4379762;32;20093;-74
2021/12/06 00:09:46;;;;;;;2.97;2.87;;;;;;;3.28;100.00;100655.38;4378500;32;20563;-74
2021/12/06 00:12:11;;;;;;;3.20;3.10;;;;;;;3.28;100.00;100651.94;4379106;32;20315;-75
2021/12/06 00:14:38;;;;;;;3.03;2.92;;;;;;;2.20;100.00;100472.91;4376353;32;20073;-73
2021/12/06 00:17:05;;;;;;;3.00;2.90;;;;;;;3.09;100.00;100633.37;4384065;32;20061;-75
2021/12/06 00:19:31;;;;;;;4.28;4.07;;;;;;;3.06;100.00;100623.91;4377561;32;20087;-73
2021/12/06 00:21:57;;;;;;;3.10;3.00;;;;;;;3.07;100.00;100630.81;4386821;32;20092;-74
2021/12/06 00:24:23;;;;;;;4.37;4.18;;;;;;;2.37;100.00;100511.41;4376485;32;20150;-77
2021/12/06 00:26:48;;;;;;;3.20;3.10;;;;;;;3.26;100.00;100662.34;4378806;32;20092;-75
2021/12/06 00:29:14;;;;;;;3.00;2.90;;;;;;;3.25;100.00;100659.78;4395201;32;20540;-74
2021/12/06 00:31:39;;;;;;;3.00;2.90;;;;;;;3.22;100.00;100659.88;4378162;32;20087;-73
2021/12/06 00:34:13;;;;;;;3.30;3.20;;;;;;;2.54;100.00;100557.66;4378855;32;20057;-74
2021/12/06 00:36:40;;;;;;;4.07;3.78;;;;;;;2.43;100.00;100542.34;4384318;32;20838;-74
2021/12/06 00:39:07;;;;;;;2.97;2.87;;;;;;;2.86;100.00;100613.97;4391803;32;20079;-75
2021/12/06 00:41:33;;;;;;;4.85;4.65;;;;;;;2.78;100.00;100597.72;4395064;32;20082;-76
2021/12/06 00:44:00;;;;;;;3.10;3.00;;;;;;;2.52;100.00;100560.28;4377312;32;20088;-75
2021/12/06 00:46:25;;;;;;;4.95;4.75;;;;;;;3.10;100.00;100658.41;4395810;32;20134;-74
2021/12/06 00:48:51;;;;;;;3.30;3.20;;;;;;;2.95;100.00;100636.25;4397464;32;20065;-76
2021/12/06 00:51:16;;;;;;;3.10;3.00;;;;;;;3.07;100.00;100658.47;4395582;32;20062;-76
2021/12/06 00:53:42;;;;;;;3.40;3.30;;;;;;;3.03;100.00;100670.66;4379749;32;20094;-74
2021/12/06 00:56:07;;;;;;;3.20;3.10;;;;;;;3.02;100.00;100675.84;4396982;32;20641;-73
2021/12/06 00:58:32;;;;;;;4.62;4.43;;;;;;;1.14;100.00;100369.84;4374226;32;20074;-74
2021/12/06 01:00:58;;;;;;;3.25;3.15;;;;;;;2.97;100.00;100688.94;4381450;32;20484;-74
2021/12/06 01:03:28;;;;;;;5.05;4.85;;;;;;;2.93;100.00;100693.31;4375751;32;20069;-73
2021/12/06 01:05:53;;;;;;;4.62;4.35;;;;;;;2.37;100.00;100605.50;4409403;32;20694;-74
2021/12/06 01:08:19;;;;;;;3.30;3.20;;;;;;;2.39;100.00;100611.50;4379250;32;20073;-76
2021/12/06 01:10:44;;;;;;;3.20;3.10;;;;;;;2.86;100.00;100712.47;4391135;32;20270;-76
2021/12/06 01:13:10;;;;;;;3.03;2.92;;;;;;;2.67;100.00;100680.87;4381710;32;20089;-73
2021/12/06 01:15:35;;;;;;;4.28;4.07;;;;;;;2.24;100.00;100614.38;4395413;32;20399;-73
2021/12/06 01:18:02;;;;;;;2.97;2.87;;;;;;;2.75;100.00;100701.47;4392626;32;20070;-74
2021/12/06 01:20:30;;;;;;;5.00;4.80;;;;;;;2.87;100.00;100716.78;4384997;32;20492;-73
2021/12/06 01:23:02;;;;;;;3.10;3.00;;;;;;;2.79;100.00;100716.06;4389430;32;20132;-72
2021/12/06 01:25:35;;;;;;;5.30;5.10;;;;;;;2.87;100.00;100721.13;4404801;32;20255;-75
2021/12/06 01:41:23;;;;;;;4.97;4.78;;;;;;;2.77;100.00;100748.94;4407544;32;20092;-76
2021/12/06 01:44:09;;;;;;;3.60;3.40;;;;;;;2.75;100.00;100755.91;4392970;32;20572;-76
2021/12/06 01:46:36;;;;;;;4.95;4.75;;;;;;;2.75;100.00;100759.31;4387867;32;20208;-74
2021/12/06 01:49:01;;;;;;;3.00;2.90;;;;;;;2.60;100.00;100734.53;4394136;32;20429;-76
2021/12/06 01:51:26;;;;;;;4.72;4.53;;;;;;;2.74;100.00;100757.59;4395931;32;20092;-75
2021/12/06 01:53:52;;;;;;;3.45;3.35;;;;;;;2.74;100.00;100756.75;4384054;32;20515;-74
2021/12/06 01:56:17;;;;;;;4.32;3.75;;;;;;;2.73;100.00;100755.91;4398130;32;20508;-76
2021/12/06 01:58:43;;;;;;;2.90;2.80;;;;;;;2.72;100.00;100756.78;4376247;32;20114;-76
2021/12/06 02:01:08;;;;;;;3.00;2.90;;;;;;;2.72;100.00;100756.78;4385085;32;20561;-75
2021/12/06 02:03:33;;;;;;;4.68;4.47;;;;;;;2.74;100.00;100764.53;4378690;32;20116;-73
2021/12/06 02:05:59;;;;;;;3.28;3.15;;;;;;;2.72;100.00;100761.12;4397203;32;20111;-75
2021/12/06 02:08:24;;;;;;;4.28;4.07;;;;;;;2.72;100.00;100772.31;4379114;32;20632;-73
2021/12/06 02:10:50;;;;;;;3.20;3.10;;;;;;;2.72;100.00;100768.87;4395617;32;20073;-73
2021/12/06 02:13:15;;;;;;;3.60;3.42;;;;;;;2.66;100.00;100762.09;4383692;32;20118;-72
2021/12/06 02:15:49;;;;;;;4.28;4.07;;;;;;;2.71;100.00;100769.78;4396578;32;20072;-74
2021/12/06 02:18:28;;;;;;;4.95;4.75;;;;;;;2.69;100.00;100772.41;4393016;32;20084;-75
2021/12/06 02:21:02;;;;;;;3.15;3.05;;;;;;;2.69;100.00;100774.16;4401995;32;20562;-73
2021/12/06 02:23:28;;;;;;;4.43;4.22;;;;;;;2.67;100.00;100779.34;4381323;32;20097;-72
2021/12/06 02:25:53;;;;;;;3.00;2.90;;;;;;;2.69;100.00;100767.22;4381575;32;20166;-78
2021/12/06 02:28:19;;;;;;;3.67;3.53;;;;;;;2.18;100.00;100703.34;4380322;32;20093;-78
2021/12/06 02:30:44;;;;;;;3.00;2.90;;;;;;;2.57;100.00;100780.41;4397170;32;20065;-73
2021/12/06 02:33:09;;;;;;;3.12;3.03;;;;;;;2.51;100.00;100781.34;4374500;32;20649;-76
2021/12/06 02:35:35;;;;;;;4.62;4.43;;;;;;;2.46;100.00;100783.16;4379385;32;20936;-73
2021/12/06 02:38:02;;;;;;;3.05;2.95;;;;;;;2.45;100.00;100789.25;4393731;32;20075;-73
2021/12/06 02:40:29;;;;;;;4.12;3.92;;;;;;;2.42;100.00;100804.81;4381212;32;20069;-73
2021/12/06 02:42:56;;;;;;;3.33;3.12;;;;;;;2.02;100.00;100768.38;4400157;32;20654;-75
2021/12/06 02:45:24;;;;;;;4.50;4.30;;;;;;;2.39;100.00;100803.16;4380260;32;20083;-74
2021/12/06 02:47:53;;;;;;;3.10;3.00;;;;;;;2.40;100.00;100811.75;4393550;32;20080;-73
2021/12/06 02:50:19;;;;;;;3.33;3.20;;;;;;;2.41;100.00;100816.06;4382770;32;20567;-78
2021/12/06 02:52:44;;;;;;;2.75;2.65;;;;;;;2.34;100.00;100804.94;4397832;32;20159;-77
2021/12/06 02:55:29;;;;;;;3.15;3.00;;;;;;;2.37;100.00;100823.03;4395828;32;20080;-74
2021/12/06 02:57:58;;;;;;;3.50;3.33;;;;;;;2.28;100.00;100812.81;4388843;32;20478;-74
2021/12/06 03:00:23;;;;;;;4.40;4.20;;;;;;;2.31;100.00;100827.47;4377833;32;21014;-76
2021/12/06 03:02:49;;;;;;;2.90;2.80;;;;;;;1.84;100.00;100754.81;4396212;32;20088;-75
2021/12/06 03:05:14;;;;;;;3.10;3.00;;;;;;;2.33;100.00;100836.91;4378014;32;20674;-75
2021/12/06 03:07:39;;;;;;;2.80;2.70;;;;;;;2.37;100.00;100835.12;4397791;32;20097;-75
2021/12/06 03:10:07;;;;;;;3.00;2.90;;;;;;;2.40;100.00;100828.16;4391298;32;20083;-74
2021/12/06 03:12:32;;;;;;;3.37;3.17;;;;;;;2.44;100.00;100833.28;4400393;32;20072;-73
2021/12/06 03:14:59;;;;;;;3.10;3.00;;;;;;;1.90;100.00;100746.13;4393343;32;20519;-73
2021/12/06 03:17:27;;;;;;;4.78;4.57;;;;;;;2.49;100.00;100836.69;4397159;32;20065;-74
2021/12/06 03:19:52;;;;;;;3.28;3.17;;;;;;;2.04;100.00;100758.84;4378720;32;20596;-74
2021/12/06 03:22:17;;;;;;;3.35;3.25;;;;;;;2.49;100.00;100837.53;4391629;32;20073;-78
2021/12/06 03:24:43;;;;;;;2.90;2.80;;;;;;;2.48;100.00;100842.72;4379918;32;20065;-74
2021/12/06 03:27:09;;;;;;;3.35;3.17;;;;;;;2.48;100.00;100850.50;4377258;32;20069;-75
2021/12/06 03:29:34;;;;;;;4.95;4.75;;;;;;;2.46;100.00;100847.06;4376152;32;20081;-75
2021/12/06 03:32:00;;;;;;;3.67;3.47;;;;;;;2.25;100.00;100809.44;4395830;32;20279;-74
2021/12/06 03:34:26;;;;;;;4.57;4.37;;;;;;;2.02;100.00;100773.53;4374095;32;20270;-73
2021/12/06 03:36:52;;;;;;;3.00;2.90;;;;;;;2.40;100.00;100846.28;4400014;32;20101;-74
2021/12/06 03:39:23;;;;;;;2.87;2.78;;;;;;;2.14;100.00;100819.94;4382439;32;20065;-77
2021/12/06 03:41:49;;;;;;;3.20;3.10;;;;;;;2.22;100.00;100828.44;4396351;32;20073;-73
2021/12/06 03:44:14;;;;;;;2.83;2.72;;;;;;;1.94;100.00;100796.94;4394636;32;20191;-75
2021/12/06 03:46:39;;;;;;;3.47;3.37;;;;;;;1.82;100.00;100790.22;4397306;32;20465;-78
2021/12/06 03:49:10;;;;;;;2.78;2.67;;;;;;;2.17;100.00;100861.34;4396370;32;20211;-73
2021/12/06 03:51:35;;;;;;;4.55;4.35;;;;;;;2.09;100.00;100858.00;4393264;32;20589;-74
2021/12/06 03:54:01;;;;;;;3.00;2.90;;;;;;;1.68;100.00;100811.13;4389628;32;20171;-74
2021/12/06 03:56:26;;;;;;;4.28;4.07;;;;;;;1.73;100.00;100824.84;4394890;32;20144;-75
2021/12/06 03:58:51;;;;;;;2.90;2.80;;;;;;;1.80;100.00;100861.84;4385860;32;20061;-74
2021/12/06 04:01:17;;;;;;;2.90;2.80;;;;;;;1.72;100.00;100858.50;4390992;32;20065;-80
2021/12/06 04:03:42;;;;;;;3.58;3.37;;;;;;;1.64;100.00;100857.75;4380134;32;21157;-75
2021/12/06 04:06:08;;;;;;;2.80;2.70;;;;;;;1.58;100.00;100872.50;4393911;32;20783;-76
2021/12/06 04:08:33;;;;;;;4.78;4.57;;;;;;;1.51;100.00;100898.44;4378120;32;20492;-74
2021/12/06 04:10:59;;;;;;;2.92;2.83;;;;;;;1.43;100.00;100856.28;4408573;32;20088;-75
2021/12/06 04:13:24;;;;;;;4.82;4.55;;;;;;;1.17;100.00;100832.44;4389026;32;20674;-73
2021/12/06 04:15:49;;;;;;;3.53;3.28;;;;;;;1.28;100.00;100859.91;4395325;32;20093;-73
2021/12/06 04:18:15;;;;;;;2.97;2.87;;;;;;;0.96;100.00;100825.81;4381360;32;20493;-76
2021/12/06 04:20:40;;;;;;;3.42;3.33;;;;;;;0.83;100.00;100808.69;4393379;32;20077;-73
2021/12/06 04:23:07;;;;;;;3.28;3.12;;;;;;;0.28;100.00;100724.91;4394136;32;20165;-77
2021/12/06 04:25:33;;;;;;;4.68;4.47;;;;;;;1.09;100.00;100873.03;4390575;32;20116;-74
2021/12/06 04:28:04;;;;;;;2.95;2.85;;;;;;;0.40;100.00;100760.03;4377425;32;20143;-74
2021/12/06 04:30:29;;;;;;;3.17;3.08;;;;;;;0.41;100.00;100758.34;4409659;32;20619;-75
2021/12/06 04:32:55;;;;;;;3.40;3.30;;;;;;;0.99;100.00;100882.59;4391424;32;20064;-76
2021/12/06 04:35:21;;;;;;;4.22;4.05;;;;;;;0.71;100.00;100853.59;4392897;32;20535;-73
2021/12/06 04:37:47;;;;;;;3.00;2.90;;;;;;;0.92;100.00;100885.25;4398596;32;20114;-75
2021/12/06 04:40:12;;;;;;;2.80;2.70;;;;;;;0.86;100.00;100887.91;4381043;32;20623;-75
2021/12/06 04:42:38;;;;;;;3.75;3.45;;;;;;;0.78;100.00;100886.25;4392527;32;20172;-76
2021/12/06 04:45:04;;;;;;;3.25;3.15;;;;;;;0.72;100.00;100903.50;4406386;32;20077;-75
2021/12/06 04:47:29;;;;;;;4.97;4.78;;;;;;;0.70;100.00;100911.31;4379899;32;20066;-75
2021/12/06 04:49:55;;;;;;;2.50;2.40;;;;;;;-0.01;100.00;100805.12;4397975;32;20099;-75
2021/12/06 04:52:20;;;;;;;5.55;4.97;;;;;;;0.68;100.00;100913.03;4382135;32;20083;-75
2021/12/06 04:54:53;;;;;;;3.00;2.90;;;;;;;0.70;100.00;100916.47;4396439;32;20092;-75
2021/12/06 04:57:30;;;;;;;3.22;3.10;;;;;;;0.19;100.00;100833.37;4389170;32;20188;-76
2021/12/06 05:00:14;;;;;;;3.92;3.62;;;;;;;-0.77;100.00;100700.75;4374208;32;20599;-74
2021/12/06 05:02:39;;;;;;;2.62;2.53;;;;;;;0.70;100.00;100919.06;4403718;32;20626;-73
2021/12/06 05:05:35;;;;;;;2.80;2.70;;;;;;;0.27;100.00;100859.97;4390958;32;20195;-73
2021/12/06 05:08:16;;;;;;;2.70;2.60;;;;;;;0.24;100.00;100870.34;4390416;32;20320;-76
2021/12/06 05:10:41;;;;;;;2.87;2.78;;;;;;;0.49;100.00;100912.31;4393451;32;20070;-76
2021/12/06 05:13:07;;;;;;;2.70;2.60;;;;;;;-0.84;100.00;100723.12;4386714;32;20069;-75
2021/12/06 05:15:32;;;;;;;4.50;4.30;;;;;;;0.73;100.00;100944.00;4392218;32;20135;-73
2021/12/06 05:17:58;;;;;;;2.90;2.80;;;;;;;0.67;100.00;100925.97;4381811;32;20088;-75
2021/12/06 05:20:23;;;;;;;4.70;4.50;;;;;;;0.65;100.00;100925.97;4394197;32;20062;-77
2021/12/06 05:22:48;;;;;;;2.70;2.60;;;;;;;0.53;100.00;100907.97;4394554;32;20116;-75
2021/12/06 05:25:14;;;;;;;2.70;2.60;;;;;;;0.10;100.00;100838.56;4399452;32;20088;-73
2021/12/06 05:27:40;;;;;;;2.72;2.62;;;;;;;0.71;100.00;100954.31;4376648;32;22290;-75
2021/12/06 05:30:06;;;;;;;2.80;2.70;;;;;;;0.65;100.00;100951.78;4384727;32;20073;-73
2021/12/06 05:32:34;;;;;;;4.55;4.35;;;;;;;0.53;100.00;100923.47;4392136;32;20075;-75
2021/12/06 05:35:07;;;;;;;2.90;2.80;;;;;;;0.65;100.00;100941.47;4394857;32;20121;-74
2021/12/06 05:37:42;;;;;;;4.28;4.07;;;;;;;0.51;100.00;100908.00;4391955;32;20227;-75
2021/12/06 05:40:10;;;;;;;2.70;2.60;;;;;;;0.81;100.00;100947.38;4393426;32;20591;-74
2021/12/06 05:42:36;;;;;;;5.25;4.95;;;;;;;0.43;100.00;100872.78;4388177;32;20093;-74
2021/12/06 05:45:02;;;;;;;3.22;3.00;;;;;;;1.06;100.00;100970.41;4394246;32;20081;-73
2021/12/06 05:47:27;;;;;;;5.10;4.90;;;;;;;0.88;100.00;100925.78;4384439;32;20899;-75
2021/12/06 05:49:53;;;;;;;2.87;2.78;;;;;;;0.85;100.00;100924.94;4395259;32;20442;-74
2021/12/06 05:52:18;;;;;;;3.22;3.12;;;;;;;1.09;100.00;100998.81;4379025;32;20121;-75
2021/12/06 05:54:43;;;;;;;2.95;2.85;;;;;;;-0.36;100.00;100734.00;4393560;32;20065;-74
2021/12/06 05:57:10;;;;;;;3.00;2.90;;;;;;;1.02;100.00;100966.13;4377264;32;20075;-73
2021/12/06 05:59:35;;;;;;;3.00;2.90;;;;;;;0.86;100.00;100947.31;4407792;32;20605;-74
2021/12/06 06:02:00;;;;;;;2.90;2.80;;;;;;;0.92;100.00;100968.81;4382383;32;20069;-75
2021/12/06 06:04:26;;;;;;;4.45;4.25;;;;;;;-1.06;100.00;100650.25;4378049;32;20433;-73
2021/12/06 06:06:51;;;;;;;3.30;3.20;;;;;;;0.81;100.00;100978.38;4380300;32;20091;-76
2021/12/06 06:09:16;;;;;;;2.85;2.75;;;;;;;0.76;100.00;100982.69;4390823;32;20359;-77
2021/12/06 06:11:42;;;;;;;3.65;3.55;;;;;;;0.71;100.00;100985.31;4391621;32;20093;-74
2021/12/06 06:14:07;;;;;;;2.70;2.60;;;;;;;0.09;100.00;100891.06;4377645;32;20527;-73
2021/12/06 06:16:36;;;;;;;4.90;4.70;;;;;;;0.70;100.00;100991.38;4388406;32;20139;-73
2021/12/06 06:19:02;;;;;;;3.10;3.00;;;;;;;0.64;100.00;100993.13;4392357;32;20584;-75
2021/12/06 06:21:28;;;;;;;4.68;4.47;;;;;;;0.70;100.00;100998.25;4376930;32;20098;-75
2021/12/06 06:23:53;;;;;;;3.05;2.95;;;;;;;0.41;100.00;100957.97;4379355;32;20056;-75
2021/12/06 06:26:18;;;;;;;3.12;3.03;;;;;;;0.56;100.00;100980.25;4408188;32;20281;-77
2021/12/06 06:28:44;;;;;;;2.80;2.70;;;;;;;0.68;100.00;101008.59;4417040;32;20059;-77
2021/12/06 06:31:09;;;;;;;2.97;2.87;;;;;;;0.36;100.00;100952.84;4405303;32;20123;-74
2021/12/06 06:33:34;;;;;;;4.55;4.35;;;;;;;0.69;100.00;101012.87;4392986;32;20200;-72
2021/12/06 06:36:00;;;;;;;3.17;3.08;;;;;;;0.72;100.00;101020.63;4378675;32;20079;-76
2021/12/06 06:38:25;;;;;;;5.87;5.50;;;;;;;0.74;100.00;101026.66;4390317;32;20073;-74
2021/12/06 06:40:51;;;;;;;3.00;2.90;;;;;;;0.54;100.00;101008.69;4384847;32;20073;-75
2021/12/06 06:43:17;;;;;;;2.90;2.80;;;;;;;0.68;100.00;101007.72;4375461;32;20214;-76
2021/12/06 06:45:42;;;;;;;3.40;3.20;;;;;;;0.83;100.00;101027.44;4377311;32;20583;-76
2021/12/06 06:48:07;;;;;;;3.20;3.10;;;;;;;0.85;100.00;101031.72;4381234;32;20073;-75
2021/12/06 06:50:33;;;;;;;5.30;5.10;;;;;;;0.80;100.00;101012.81;4377385;32;20992;-74
2021/12/06 06:52:58;;;;;;;3.92;3.72;;;;;;;0.87;100.00;101021.41;4398310;32;20072;-74
2021/12/06 06:55:24;;;;;;;4.85;4.65;;;;;;;0.66;100.00;100981.06;4376439;32;20907;-76
2021/12/06 06:57:52;;;;;;;3.55;3.35;;;;;;;0.91;100.00;101023.09;4393944;32;20084;-77
2021/12/06 07:00:23;;;;;;;3.30;3.20;;;;;;;-0.68;100.00;100754.78;4375837;32;20085;-77
2021/12/06 07:02:48;;;;;;;3.92;3.72;;;;;;;0.91;100.00;101012.75;4388796;32;20072;-74
2021/12/06 07:05:14;;;;;;;2.92;2.83;;;;;;;0.82;100.00;100999.87;4379526;32;20080;-75
2021/12/06 07:07:39;;;;;;;3.28;3.17;;;;;;;1.01;100.00;101013.53;4386926;32;24702;-75
2021/12/06 07:10:05;;;;;;;3.50;3.30;;;;;;;-0.73;100.00;100712.75;4381168;32;20069;-74
2021/12/06 07:12:31;;;;;;;4.90;4.70;;;;;;;1.07;100.00;101009.16;4388753;32;20071;-73
2021/12/06 07:14:56;;;;;;;3.42;3.33;;;;;;;-0.38;100.00;100769.25;4390989;32;20083;-72
2021/12/06 07:17:22;;;;;;;4.03;3.85;;;;;;;0.62;100.00;100933.72;4385420;32;20064;-74
2021/12/06 07:19:47;;;;;;;3.40;3.30;;;;;;;0.90;100.00;100980.00;4376770;32;20083;-72
2021/12/06 07:22:12;;;;;;;3.47;3.37;;;;;;;0.04;100.00;100836.03;4389832;32;20065;-75
2021/12/06 07:24:38;;;;;;;3.10;3.00;;;;;;;1.09;100.00;101020.34;4374512;32;20072;-74
2021/12/06 07:27:03;;;;;;;3.10;3.00;;;;;;;0.86;100.00;100984.34;4377239;32;20158;-73
2021/12/06 07:29:33;;;;;;;4.60;4.40;;;;;;;1.07;100.00;101022.09;4378647;32;20096;-75
2021/12/06 07:31:58;;;;;;;3.00;2.90;;;;;;;1.07;100.00;101019.50;4387994;32;21205;-75
2021/12/06 07:34:24;;;;;;;4.60;4.40;;;;;;;1.08;100.00;101031.53;4372448;32;20073;-70
2021/12/06 07:36:50;;;;;;;3.53;3.42;;;;;;;0.04;100.00;100851.53;4385300;32;20173;-77
2021/12/06 07:39:15;;;;;;;3.20;3.10;;;;;;;0.75;100.00;100976.69;4377595;32;20488;-72
2021/12/06 07:41:40;;;;;;;3.12;3.03;;;;;;;1.11;100.00;101034.13;4394901;32;20255;-75
2021/12/06 07:44:06;;;;;;;3.10;3.00;;;;;;;-0.35;100.00;100789.00;4376143;32;20080;-75
2021/12/06 07:46:31;;;;;;;4.55;4.35;;;;;;;-0.05;100.00;100837.81;4395490;32;20077;-76
2021/12/06 07:48:57;;;;;;;5.28;4.35;;;;;;;1.19;100.00;101039.25;4378536;32;20637;-75
2021/12/06 07:51:22;;;;;;;3.85;3.67;;;;;;;1.05;100.00;101005.75;4390714;32;20068;-76
2021/12/06 07:53:48;;;;;;;3.00;2.90;;;;;;;1.22;100.00;101028.84;4381867;32;20593;-75
2021/12/06 07:56:13;;;;;;;3.22;3.12;;;;;;;0.92;100.00;100979.16;4390925;32;20087;-77
2021/12/06 07:58:39;;;;;;;3.15;3.05;;;;;;;1.19;100.00;101018.56;4379830;32;20087;-74
2021/12/06 08:01:04;;;;;;;3.72;3.40;;;;;;;1.21;100.00;101015.97;4390141;32;20083;-73
2021/12/06 08:03:31;;;;;;;4.37;4.18;;;;;;;1.32;100.00;101029.63;4389321;32;20484;-76
2021/12/06 08:05:56;;;;;;;2.80;2.70;;;;;;;1.20;100.00;101007.31;4379350;32;20544;-74
2021/12/06 08:08:23;;;;;;;4.50;4.30;;;;;;;1.14;100.00;100994.47;4377153;32;20083;-77
2021/12/06 08:10:54;;;;;;;3.55;3.45;;;;;;;1.33;100.00;101034.81;4395145;32;20183;-76
2021/12/06 08:13:23;;;;;;;3.05;2.95;;;;;;;1.33;100.00;101028.78;4396133;32;20076;-77
2021/12/06 08:15:49;;;;;;;3.08;2.97;;;;;;;0.67;100.00;100920.78;4402551;32;20448;-75
2021/12/06 08:18:14;;;;;;;3.10;3.00;;;;;;;1.22;100.00;101003.00;4404530;32;20424;-75
2021/12/06 08:20:41;;;;;;;3.10;3.00;;;;;;;1.35;100.00;101032.22;4389668;32;20080;-76
2021/12/06 08:23:06;;;;;;;2.75;2.65;;;;;;;1.36;100.00;101033.91;4389484;32;20087;-75
2021/12/06 08:25:32;;;;;;;4.62;4.43;;;;;;;1.26;100.00;101014.19;4398238;32;20094;-76
2021/12/06 08:27:57;;;;;;;3.28;3.17;;;;;;;1.20;100.00;101002.16;4389809;32;20254;-76
2021/12/06 08:30:24;;;;;;;3.00;2.90;;;;;;;1.42;100.00;101044.19;4407321;32;20495;-75
2021/12/06 08:32:54;;;;;;;3.30;3.20;;;;;;;1.22;100.00;101004.75;4389232;32;20090;-75
2021/12/06 08:35:19;;;;;;;4.50;4.20;;;;;;;0.68;100.00;100894.06;4398767;32;20283;-76
2021/12/06 08:37:45;;;;;;;3.10;3.00;;;;;;;1.62;100.00;101049.19;4388960;32;20095;-75
2021/12/06 08:40:10;;;;;;;3.20;3.10;;;;;;;1.71;100.00;101043.94;4377984;32;20366;-76
2021/12/06 08:42:36;;;;;;;5.20;5.00;;;;;;;1.77;100.00;101046.47;4395711;32;20077;-74
2021/12/06 08:45:02;;;;;;;3.40;3.20;;;;;;;1.79;100.00;101039.53;4395424;32;20268;-77
2021/12/06 08:47:27;;;;;;;3.42;3.33;;;;;;;0.77;100.00;100856.12;4392157;32;20626;-75
2021/12/06 08:49:52;;;;;;;3.00;2.90;;;;;;;1.97;100.00;101043.66;4409587;32;20079;-76
2021/12/06 08:52:18;;;;;;;3.78;3.65;;;;;;;1.62;100.00;100983.66;4400830;32;20075;-77
2021/12/06 08:54:43;;;;;;;3.37;3.28;;;;;;;1.13;100.00;100885.03;4408399;32;20612;-78
2021/12/06 08:57:09;;;;;;;3.00;2.90;;;;;;;2.24;100.00;101053.72;4388923;32;20073;-76
2021/12/06 08:59:34;;;;;;;4.57;4.37;;;;;;;2.11;100.00;101020.19;4420396;32;20103;-76
2021/12/06 09:02:00;;;;;;;3.20;3.10;;;;;;;1.81;100.00;100961.91;4403281;32;20350;-75
2021/12/06 09:04:27;;;;;;;5.07;4.87;;;;;;;2.28;100.00;101029.50;4415659;32;20900;-72
2021/12/06 09:06:53;;;;;;;3.87;3.72;;;;;;;1.09;100.00;100831.69;4395389;32;20158;-76
2021/12/06 09:09:19;;;;;;;3.65;3.45;;;;;;;2.53;100.00;101027.44;4391185;32;20891;-78
2021/12/06 09:11:45;;;;;;;3.25;3.15;;;;;;;1.86;100.00;100912.66;4405785;32;20067;-77
2021/12/06 09:14:10;;;;;;;3.20;3.10;;;;;;;2.46;100.00;100976.59;4402257;32;20085;-76
2021/12/06 09:16:39;;;;;;;4.15;3.95;;;;;;;2.86;100.00;101022.66;4405305;32;20615;-76
2021/12/06 09:19:05;;;;;;;3.45;3.30;;;;;;;2.83;100.00;100986.37;4396643;32;20748;-75
2021/12/06 09:21:31;;;;;;;4.72;4.53;;;;;;;3.11;100.00;101075.00;4405554;32;20179;-76
2021/12/06 09:24:00;;;;;;;3.28;3.17;;;;;;;3.15;100.00;101051.56;4415902;32;20142;-76
2021/12/06 09:26:26;;;;;;;5.07;4.87;;;;;;;3.09;100.00;101050.81;4387390;32;20109;-76
2021/12/06 09:28:51;;;;;;;3.30;3.20;;;;;;;3.00;100.00;101024.13;4392132;32;20098;-75
2021/12/06 09:31:19;;;;;;;3.28;3.17;;;;;;;2.31;100.00;100872.34;4394644;32;20819;-77
2021/12/06 09:33:44;;;;;;;3.50;3.40;;;;;;;3.53;100.00;101046.66;4404238;32;20653;-76
2021/12/06 09:36:12;;;;;;;3.42;3.33;;;;;;;3.69;100.00;101061.06;4396601;32;20091;-77
2021/12/06 09:38:39;;;;;;;4.40;4.20;;;;;;;3.17;100.00;100938.31;4393048;32;20441;-76
2021/12/06 09:41:14;;;;;;;3.03;2.92;;;;;;;3.79;100.00;101056.56;4404707;32;20531;-76
2021/12/06 09:43:40;;;;;;;4.25;4.05;;;;;;;3.94;100.00;101056.25;4403047;32;20083;-75
2021/12/06 09:46:07;;;;;;;3.60;3.50;;;;;;;4.09;100.00;101057.72;4392301;32;20076;-77
2021/12/06 09:48:33;;;;;;;5.53;5.25;;;;;;;3.96;100.00;101032.84;4389682;32;20072;-77
2021/12/06 09:51:01;;;;;;;3.90;3.70;;;;;;;4.11;100.00;101060.25;4395217;32;20076;-75
2021/12/06 09:53:29;;;;;;;4.32;4.12;;;;;;;3.58;100.00;100965.22;4389265;32;20072;-76
2021/12/06 09:56:03;;;;;;;3.20;3.10;;;;;;;3.58;100.00;100962.59;4410778;32;20069;-76
2021/12/06 09:58:30;;;;;;;7.55;4.95;;;;;;;4.22;100.00;101052.28;4389660;32;20192;-76
2021/12/06 10:01:04;;;;;;;3.72;3.62;;;;;;;3.87;100.00;101000.16;4391118;32;20282;-76
2021/12/06 10:03:30;;;;;;;5.05;4.65;;;;;;;3.73;100.00;100958.87;4412996;32;20142;-76
2021/12/06 10:06:01;;;;;;;4.37;4.18;;;;;;;4.34;100.00;101067.59;4392632;32;20400;-77
2021/12/06 10:08:27;;;;;;;3.70;3.50;;;;;;;3.99;100.00;101015.47;4386948;32;20079;-76
2021/12/06 10:10:53;;;;;;;3.70;3.60;;;;;;;4.15;100.00;101002.16;4406161;32;21206;-76
2021/12/06 10:13:18;;;;;;;5.10;4.85;;;;;;;3.95;100.00;101046.75;4400151;32;20704;-75
2021/12/06 10:15:44;;;;;;;4.03;3.83;;;;;;;3.70;100.00;101026.41;4403489;32;21283;-74
2021/12/06 10:18:10;;;;;;;4.97;4.68;;;;;;;3.10;100.00;100957.44;4394057;32;20084;-75
2021/12/06 10:20:35;;;;;;;6.00;5.70;;;;;;;2.56;100.00;100903.03;4395540;32;20068;-76
2021/12/06 10:23:00;;;;;;;3.40;3.30;;;;;;;3.29;100.00;100996.03;4383427;32;20079;-76
2021/12/06 10:25:37;;;;;;;11.20;6.07;;;;;;;3.95;100.00;101059.72;4395761;32;20606;-76
2021/12/06 10:28:05;;;;;;;4.82;4.45;;;;;;;2.73;100.00;100838.84;4392163;32;20296;-74
2021/12/06 10:30:33;;;;;;;5.03;4.82;;;;;;;4.44;100.00;101056.12;4400720;32;20145;-75
2021/12/06 10:33:06;;;;;;;3.20;3.10;;;;;;;3.79;100.00;100911.19;4384389;32;20086;-75
2021/12/06 10:35:32;;;;;;;5.65;5.43;;;;;;;4.70;100.00;101049.53;4384750;32;20058;-75
2021/12/06 10:37:57;;;;;;;3.47;3.37;;;;;;;3.64;100.00;100851.81;4371801;32;20070;-77
2021/12/06 10:40:24;;;;;;;4.82;4.62;;;;;;;4.80;100.00;101044.06;4378258;32;20111;-78
2021/12/06 10:42:50;;;;;;;4.03;3.83;;;;;;;4.59;98.75;101002.94;4391344;32;20196;-79
2021/12/06 10:45:20;;;;;;;4.37;4.03;;;;;;;5.01;98.62;101036.66;4394505;32;20085;-78
2021/12/06 10:48:17;;;;;;;4.20;4.00;;;;;;;5.20;97.90;101030.13;4393693;32;20073;-77
2021/12/06 10:50:52;;;;;;;4.75;4.37;;;;;;;3.92;96.52;100828.69;4395360;32;20200;-78
2021/12/06 10:53:19;;;;;;;4.70;4.40;;;;;;;5.03;95.44;101021.00;4401160;32;20101;-77
2021/12/06 10:55:46;;;;;;;4.80;4.60;;;;;;;5.10;96.46;101018.22;4378966;32;20482;-78
2021/12/06 10:58:16;;;;;;;3.55;3.40;;;;;;;2.82;95.28;100665.91;4375819;32;20663;-78
2021/12/06 11:01:05;;;;;;;4.28;4.07;;;;;;;4.96;95.10;101013.37;4375367;32;20072;-75
2021/12/06 11:03:40;;;;;;;6.03;5.70;;;;;;;3.98;94.87;100883.91;4375549;32;20688;-77
2021/12/06 11:06:12;;;;;;;3.60;3.50;;;;;;;4.85;96.30;101006.69;4389767;32;20604;-76
2021/12/06 11:08:39;;;;;;;4.60;4.40;;;;;;;3.44;95.14;100782.16;4376667;32;20689;-76
2021/12/06 11:11:15;;;;;;;3.40;3.30;;;;;;;3.09;95.04;100734.50;4379584;32;20216;-78
2021/12/06 11:13:46;;;;;;;6.07;5.68;;;;;;;4.62;95.69;101002.91;4380225;32;20142;-79
2021/12/06 11:16:25;;;;;;;3.50;3.40;;;;;;;3.54;94.97;100828.62;4380082;32;20085;-81
2021/12/06 11:18:52;;;;;;;3.75;3.60;;;;;;;3.90;95.33;100918.75;4385907;32;20296;-80
2021/12/06 11:21:34;;;;;;;4.47;4.05;;;;;;;4.27;96.25;101014.94;4392966;32;20148;-79
2021/12/06 11:24:01;;;;;;;3.50;3.40;;;;;;;2.44;96.66;100685.66;4392448;32;20138;-78
2021/12/06 11:26:26;;;;;;;5.15;4.95;;;;;;;4.28;97.74;100982.84;4388116;32;20578;-76
2021/12/06 11:28:52;;;;;;;3.40;3.30;;;;;;;4.06;98.07;100922.72;4376155;32;20069;-77
2021/12/06 11:31:17;;;;;;;3.50;3.40;;;;;;;3.68;97.59;100858.62;4378396;32;20100;-78
2021/12/06 11:33:43;;;;;;;3.58;3.47;;;;;;;3.54;96.86;100846.78;4415047;32;21359;-78
2021/12/06 11:36:19;;;;;;;4.20;4.00;;;;;;;4.09;97.54;100940.84;4391395;32;20566;-76
2021/12/06 11:38:56;;;;;;;3.75;3.55;;;;;;;4.11;96.69;100975.44;4395491;32;20961;-77
2021/12/06 11:41:22;;;;;;;4.05;3.87;;;;;;;2.40;96.12;100729.72;4391184;32;20081;-77